sensor_id;sensor_type;location;lat;lon;timestamp;P1;durP1;ratioP1;P2;durP2;ratioP2
62687;SDS011;48752;51.056;17.056;2022-08-01T00:00:09;4.18;;;2.80;;
62687;SDS011;48752;51.056;17.056;2022-08-01T00:02:36;5.25;;;3.13;;
62687;SDS011;48752;51.056;17.056;2022-08-01T00:05:05;4.68;;;3.42;;
62687;SDS011;48752;51.056;17.056;2022-08-01T00:07:32;4.85;;;3.20;;
62687;SDS011;48752;51.056;17.056;2022-08-01T00:10:02;4.00;;;3.00;;
62687;SDS011;48752;51.056;17.056;2022-08-01T00:12:29;4.13;;;3.25;;
62687;SDS011;48752;51.056;17.056;2022-08-01T00:14:54;3.40;;;2.92;;
62687;SDS011;48752;51.056;17.056;2022-08-01T00:17:19;3.22;;;2.83;;
62687;SDS011;48752;51.056;17.056;2022-08-01T00:19:45;3.28;;;2.97;;
62687;SDS011;48752;51.056;17.056;2022-08-01T00:22:10;5.10;;;2.92;;
62687;SDS011;48752;51.056;17.056;2022-08-01T00:24:35;3.53;;;2.83;;
62687;SDS011;48752;51.056;17.056;2022-08-01T00:27:01;3.25;;;2.70;;
62687;SDS011;48752;51.056;17.056;2022-08-01T00:29:26;3.58;;;3.03;;
62687;SDS011;48752;51.056;17.056;2022-08-01T00:31:52;3.22;;;2.92;;
62687;SDS011;48752;51.056;17.056;2022-08-01T00:34:17;3.40;;;2.97;;
62687;SDS011;48752;51.056;17.056;2022-08-01T00:36:42;3.55;;;2.70;;
62687;SDS011;48752;51.056;17.056;2022-08-01T00:39:08;3.30;;;2.78;;
62687;SDS011;48752;51.056;17.056;2022-08-01T00:41:33;4.63;;;2.90;;
62687;SDS011;48752;51.056;17.056;2022-08-01T00:44:01;3.63;;;3.08;;
62687;SDS011;48752;51.056;17.056;2022-08-01T00:46:28;3.03;;;2.83;;
62687;SDS011;48752;51.056;17.056;2022-08-01T00:48:53;3.38;;;2.95;;
62687;SDS011;48752;51.056;17.056;2022-08-01T00:51:19;3.95;;;3.28;;
62687;SDS011;48752;51.056;17.056;2022-08-01T00:53:45;3.35;;;2.72;;
62687;SDS011;48752;51.056;17.056;2022-08-01T00:56:10;3.28;;;2.97;;
62687;SDS011;48752;51.056;17.056;2022-08-01T00:58:36;3.72;;;3.22;;
62687;SDS011;48752;51.056;17.056;2022-08-01T01:01:02;4.03;;;3.60;;
62687;SDS011;48752;51.056;17.056;2022-08-01T01:03:27;5.72;;;3.80;;
62687;SDS011;48752;51.056;17.056;2022-08-01T01:06:01;4.57;;;4.03;;
62687;SDS011;48752;51.056;17.056;2022-08-01T01:08:41;4.00;;;3.45;;
62687;SDS011;48752;51.056;17.056;2022-08-01T01:11:14;4.57;;;3.13;;
62687;SDS011;48752;51.056;17.056;2022-08-01T01:13:43;4.18;;;3.53;;
62687;SDS011;48752;51.056;17.056;2022-08-01T01:16:13;7.30;;;4.05;;
62687;SDS011;48752;51.056;17.056;2022-08-01T01:18:45;5.65;;;3.65;;
62687;SDS011;48752;51.056;17.056;2022-08-01T01:29:17;4.05;;;3.65;;
62687;SDS011;48752;51.056;17.056;2022-08-01T01:31:50;6.53;;;3.47;;
62687;SDS011;48752;51.056;17.056;2022-08-01T01:34:18;4.15;;;3.75;;
62687;SDS011;48752;51.056;17.056;2022-08-01T01:36:45;4.78;;;3.67;;
62687;SDS011;48752;51.056;17.056;2022-08-01T01:39:13;4.30;;;3.30;;
62687;SDS011;48752;51.056;17.056;2022-08-01T01:41:39;4.78;;;3.67;;
62687;SDS011;48752;51.056;17.056;2022-08-01T01:44:05;5.75;;;3.58;;
62687;SDS011;48752;51.056;17.056;2022-08-01T01:46:30;8.27;;;4.00;;
62687;SDS011;48752;51.056;17.056;2022-08-01T01:48:56;5.88;;;3.75;;
62687;SDS011;48752;51.056;17.056;2022-08-01T01:51:22;3.88;;;3.35;;
62687;SDS011;48752;51.056;17.056;2022-08-01T01:53:50;5.82;;;3.78;;
62687;SDS011;48752;51.056;17.056;2022-08-01T01:56:17;4.70;;;4.13;;
62687;SDS011;48752;51.056;17.056;2022-08-01T01:58:43;5.28;;;4.00;;
62687;SDS011;48752;51.056;17.056;2022-08-01T02:01:10;4.50;;;3.75;;
62687;SDS011;48752;51.056;17.056;2022-08-01T02:03:36;4.28;;;3.88;;
62687;SDS011;48752;51.056;17.056;2022-08-01T02:06:02;4.13;;;3.67;;
62687;SDS011;48752;51.056;17.056;2022-08-01T02:08:29;5.05;;;3.72;;
62687;SDS011;48752;51.056;17.056;2022-08-01T02:10:54;3.63;;;3.33;;
62687;SDS011;48752;51.056;17.056;2022-08-01T02:13:39;6.22;;;3.50;;
62687;SDS011;48752;51.056;17.056;2022-08-01T02:16:05;4.30;;;3.28;;
62687;SDS011;48752;51.056;17.056;2022-08-01T02:18:31;3.75;;;3.38;;
62687;SDS011;48752;51.056;17.056;2022-08-01T02:20:57;5.35;;;3.35;;
62687;SDS011;48752;51.056;17.056;2022-08-01T02:23:24;5.13;;;4.22;;
62687;SDS011;48752;51.056;17.056;2022-08-01T02:25:57;3.90;;;3.50;;
62687;SDS011;48752;51.056;17.056;2022-08-01T02:28:29;5.07;;;2.97;;
62687;SDS011;48752;51.056;17.056;2022-08-01T02:31:03;6.93;;;3.20;;
62687;SDS011;48752;51.056;17.056;2022-08-01T02:33:33;4.00;;;3.13;;
62687;SDS011;48752;51.056;17.056;2022-08-01T02:36:02;3.55;;;2.80;;
62687;SDS011;48752;51.056;17.056;2022-08-01T02:38:28;3.78;;;3.30;;
62687;SDS011;48752;51.056;17.056;2022-08-01T02:40:57;4.85;;;3.38;;
62687;SDS011;48752;51.056;17.056;2022-08-01T02:43:26;4.28;;;3.63;;
62687;SDS011;48752;51.056;17.056;2022-08-01T02:45:54;3.60;;;3.25;;
62687;SDS011;48752;51.056;17.056;2022-08-01T02:48:21;5.43;;;3.60;;
62687;SDS011;48752;51.056;17.056;2022-08-01T02:50:49;3.75;;;3.15;;
62687;SDS011;48752;51.056;17.056;2022-08-01T02:53:16;7.85;;;3.85;;
62687;SDS011;48752;51.056;17.056;2022-08-01T02:55:43;3.58;;;3.15;;
62687;SDS011;48752;51.056;17.056;2022-08-01T02:58:10;4.47;;;3.45;;
62687;SDS011;48752;51.056;17.056;2022-08-01T03:00:36;3.58;;;3.28;;
62687;SDS011;48752;51.056;17.056;2022-08-01T03:03:02;9.73;;;3.83;;
62687;SDS011;48752;51.056;17.056;2022-08-01T03:05:28;4.93;;;3.80;;
62687;SDS011;48752;51.056;17.056;2022-08-01T03:07:55;6.20;;;3.17;;
62687;SDS011;48752;51.056;17.056;2022-08-01T03:10:21;6.63;;;3.50;;
62687;SDS011;48752;51.056;17.056;2022-08-01T03:12:48;4.88;;;3.50;;
62687;SDS011;48752;51.056;17.056;2022-08-01T03:15:14;5.38;;;3.95;;
62687;SDS011;48752;51.056;17.056;2022-08-01T03:17:40;4.95;;;3.53;;
62687;SDS011;48752;51.056;17.056;2022-08-01T03:20:06;6.38;;;4.05;;
62687;SDS011;48752;51.056;17.056;2022-08-01T03:22:34;5.78;;;4.05;;
62687;SDS011;48752;51.056;17.056;2022-08-01T03:25:14;4.35;;;3.75;;
62687;SDS011;48752;51.056;17.056;2022-08-01T03:27:42;5.28;;;3.70;;
62687;SDS011;48752;51.056;17.056;2022-08-01T03:30:18;4.22;;;3.83;;
62687;SDS011;48752;51.056;17.056;2022-08-01T03:32:44;4.68;;;4.22;;
62687;SDS011;48752;51.056;17.056;2022-08-01T03:35:11;6.05;;;3.63;;
62687;SDS011;48752;51.056;17.056;2022-08-01T03:37:44;5.03;;;3.75;;
62687;SDS011;48752;51.056;17.056;2022-08-01T03:42:53;4.00;;;3.25;;
62687;SDS011;48752;51.056;17.056;2022-08-01T03:45:30;5.00;;;3.45;;
62687;SDS011;48752;51.056;17.056;2022-08-01T03:48:01;6.60;;;3.92;;
62687;SDS011;48752;51.056;17.056;2022-08-01T03:50:28;3.83;;;3.35;;
62687;SDS011;48752;51.056;17.056;2022-08-01T03:53:00;5.65;;;3.63;;
62687;SDS011;48752;51.056;17.056;2022-08-01T03:55:28;4.70;;;3.78;;
62687;SDS011;48752;51.056;17.056;2022-08-01T03:57:58;4.15;;;3.13;;
62687;SDS011;48752;51.056;17.056;2022-08-01T04:00:25;4.03;;;3.33;;
62687;SDS011;48752;51.056;17.056;2022-08-01T04:02:52;4.65;;;3.22;;
62687;SDS011;48752;51.056;17.056;2022-08-01T04:05:19;3.92;;;3.20;;
62687;SDS011;48752;51.056;17.056;2022-08-01T04:10:21;4.50;;;3.75;;
62687;SDS011;48752;51.056;17.056;2022-08-01T04:12:49;7.95;;;3.80;;
62687;SDS011;48752;51.056;17.056;2022-08-01T04:15:19;4.88;;;3.70;;
62687;SDS011;48752;51.056;17.056;2022-08-01T04:17:50;5.03;;;3.97;;
62687;SDS011;48752;51.056;17.056;2022-08-01T04:20:17;11.35;;;5.90;;
62687;SDS011;48752;51.056;17.056;2022-08-01T04:22:42;7.65;;;4.43;;
62687;SDS011;48752;51.056;17.056;2022-08-01T04:25:14;4.88;;;4.43;;
62687;SDS011;48752;51.056;17.056;2022-08-01T04:27:45;9.27;;;4.85;;
62687;SDS011;48752;51.056;17.056;2022-08-01T04:30:27;5.07;;;4.50;;
62687;SDS011;48752;51.056;17.056;2022-08-01T04:32:56;4.97;;;4.47;;
62687;SDS011;48752;51.056;17.056;2022-08-01T04:35:25;7.28;;;5.25;;
62687;SDS011;48752;51.056;17.056;2022-08-01T04:37:59;5.65;;;4.03;;
62687;SDS011;48752;51.056;17.056;2022-08-01T04:40:28;6.70;;;4.50;;
62687;SDS011;48752;51.056;17.056;2022-08-01T04:42:53;6.07;;;4.45;;
62687;SDS011;48752;51.056;17.056;2022-08-01T04:45:21;7.00;;;4.47;;
62687;SDS011;48752;51.056;17.056;2022-08-01T04:47:47;6.30;;;4.88;;
62687;SDS011;48752;51.056;17.056;2022-08-01T04:50:14;6.28;;;4.50;;
62687;SDS011;48752;51.056;17.056;2022-08-01T04:52:40;10.38;;;5.25;;
62687;SDS011;48752;51.056;17.056;2022-08-01T04:55:07;6.53;;;5.35;;
62687;SDS011;48752;51.056;17.056;2022-08-01T04:57:34;9.25;;;4.95;;
62687;SDS011;48752;51.056;17.056;2022-08-01T05:00:10;6.60;;;5.38;;
62687;SDS011;48752;51.056;17.056;2022-08-01T05:02:37;6.82;;;5.25;;
62687;SDS011;48752;51.056;17.056;2022-08-01T05:05:04;7.95;;;5.50;;
62687;SDS011;48752;51.056;17.056;2022-08-01T05:10:06;7.53;;;5.85;;
62687;SDS011;48752;51.056;17.056;2022-08-01T05:12:33;6.90;;;5.45;;
62687;SDS011;48752;51.056;17.056;2022-08-01T05:15:00;6.70;;;6.00;;
62687;SDS011;48752;51.056;17.056;2022-08-01T05:17:27;6.95;;;5.90;;
62687;SDS011;48752;51.056;17.056;2022-08-01T05:19:53;9.02;;;5.85;;
62687;SDS011;48752;51.056;17.056;2022-08-01T05:22:18;6.65;;;5.50;;
62687;SDS011;48752;51.056;17.056;2022-08-01T05:24:47;10.15;;;6.80;;
62687;SDS011;48752;51.056;17.056;2022-08-01T05:27:12;7.57;;;6.40;;
62687;SDS011;48752;51.056;17.056;2022-08-01T05:29:39;8.43;;;7.00;;
62687;SDS011;48752;51.056;17.056;2022-08-01T05:32:06;11.13;;;6.70;;
62687;SDS011;48752;51.056;17.056;2022-08-01T05:34:31;10.15;;;7.00;;
62687;SDS011;48752;51.056;17.056;2022-08-01T05:37:03;7.28;;;6.57;;
62687;SDS011;48752;51.056;17.056;2022-08-01T05:39:30;8.98;;;6.72;;
62687;SDS011;48752;51.056;17.056;2022-08-01T05:41:56;7.65;;;6.95;;
62687;SDS011;48752;51.056;17.056;2022-08-01T05:44:23;8.10;;;6.63;;
62687;SDS011;48752;51.056;17.056;2022-08-01T05:46:48;11.10;;;7.10;;
62687;SDS011;48752;51.056;17.056;2022-08-01T05:49:15;8.10;;;6.85;;
62687;SDS011;48752;51.056;17.056;2022-08-01T05:51:41;7.32;;;6.63;;
62687;SDS011;48752;51.056;17.056;2022-08-01T05:54:08;20.25;;;8.95;;
62687;SDS011;48752;51.056;17.056;2022-08-01T05:56:34;17.95;;;7.80;;
62687;SDS011;48752;51.056;17.056;2022-08-01T05:59:00;15.60;;;6.53;;
62687;SDS011;48752;51.056;17.056;2022-08-01T06:01:25;13.00;;;7.03;;
62687;SDS011;48752;51.056;17.056;2022-08-01T06:03:51;11.60;;;6.68;;
62687;SDS011;48752;51.056;17.056;2022-08-01T06:06:20;10.48;;;6.32;;
62687;SDS011;48752;51.056;17.056;2022-08-01T06:08:46;18.70;;;7.60;;
62687;SDS011;48752;51.056;17.056;2022-08-01T06:11:13;10.93;;;7.78;;
62687;SDS011;48752;51.056;17.056;2022-08-01T06:13:39;7.60;;;6.28;;
62687;SDS011;48752;51.056;17.056;2022-08-01T06:16:04;9.25;;;6.03;;
62687;SDS011;48752;51.056;17.056;2022-08-01T06:18:31;7.55;;;6.55;;
62687;SDS011;48752;51.056;17.056;2022-08-01T06:20:57;7.90;;;5.93;;
62687;SDS011;48752;51.056;17.056;2022-08-01T06:23:24;7.30;;;6.30;;
62687;SDS011;48752;51.056;17.056;2022-08-01T06:25:53;5.90;;;5.30;;
62687;SDS011;48752;51.056;17.056;2022-08-01T06:28:19;11.43;;;7.05;;
62687;SDS011;48752;51.056;17.056;2022-08-01T06:30:46;8.18;;;6.53;;
62687;SDS011;48752;51.056;17.056;2022-08-01T06:33:12;13.82;;;6.15;;
62687;SDS011;48752;51.056;17.056;2022-08-01T06:35:38;12.90;;;6.18;;
62687;SDS011;48752;51.056;17.056;2022-08-01T06:38:05;12.65;;;6.20;;
62687;SDS011;48752;51.056;17.056;2022-08-01T06:40:31;12.73;;;5.18;;
62687;SDS011;48752;51.056;17.056;2022-08-01T06:42:57;13.55;;;5.55;;
62687;SDS011;48752;51.056;17.056;2022-08-01T06:45:23;8.63;;;5.97;;
62687;SDS011;48752;51.056;17.056;2022-08-01T06:47:52;10.60;;;6.03;;
62687;SDS011;48752;51.056;17.056;2022-08-01T06:50:19;9.20;;;6.13;;
62687;SDS011;48752;51.056;17.056;2022-08-01T06:52:44;9.43;;;5.07;;
62687;SDS011;48752;51.056;17.056;2022-08-01T06:55:11;7.45;;;4.93;;
62687;SDS011;48752;51.056;17.056;2022-08-01T06:57:49;14.52;;;6.10;;
62687;SDS011;48752;51.056;17.056;2022-08-01T07:00:17;31.30;;;8.07;;
62687;SDS011;48752;51.056;17.056;2022-08-01T07:03:03;31.95;;;8.95;;
62687;SDS011;48752;51.056;17.056;2022-08-01T07:05:30;17.50;;;5.90;;
62687;SDS011;48752;51.056;17.056;2022-08-01T07:07:56;8.45;;;3.85;;
62687;SDS011;48752;51.056;17.056;2022-08-01T07:10:22;7.18;;;3.53;;
62687;SDS011;48752;51.056;17.056;2022-08-01T07:12:50;8.93;;;3.50;;
62687;SDS011;48752;51.056;17.056;2022-08-01T07:15:15;4.75;;;3.47;;
62687;SDS011;48752;51.056;17.056;2022-08-01T07:17:42;4.10;;;2.40;;
62687;SDS011;48752;51.056;17.056;2022-08-01T07:20:10;3.65;;;2.55;;
62687;SDS011;48752;51.056;17.056;2022-08-01T07:22:37;3.60;;;2.70;;
62687;SDS011;48752;51.056;17.056;2022-08-01T07:25:05;5.20;;;2.70;;
62687;SDS011;48752;51.056;17.056;2022-08-01T07:27:33;7.22;;;3.03;;
62687;SDS011;48752;51.056;17.056;2022-08-01T07:30:00;2.55;;;2.35;;
62687;SDS011;48752;51.056;17.056;2022-08-01T07:32:34;3.15;;;2.60;;
62687;SDS011;48752;51.056;17.056;2022-08-01T07:35:00;4.03;;;3.08;;
62687;SDS011;48752;51.056;17.056;2022-08-01T07:37:27;4.85;;;2.70;;
62687;SDS011;48752;51.056;17.056;2022-08-01T07:39:55;5.75;;;2.42;;
62687;SDS011;48752;51.056;17.056;2022-08-01T07:42:22;3.58;;;2.50;;
62687;SDS011;48752;51.056;17.056;2022-08-01T07:44:47;8.65;;;2.58;;
62687;SDS011;48752;51.056;17.056;2022-08-01T07:47:12;5.97;;;2.83;;
62687;SDS011;48752;51.056;17.056;2022-08-01T07:49:40;3.05;;;2.72;;
62687;SDS011;48752;51.056;17.056;2022-08-01T07:52:07;3.85;;;2.67;;
62687;SDS011;48752;51.056;17.056;2022-08-01T07:54:47;4.82;;;2.67;;
62687;SDS011;48752;51.056;17.056;2022-08-01T07:57:22;3.08;;;2.70;;
62687;SDS011;48752;51.056;17.056;2022-08-01T07:59:49;4.35;;;2.92;;
62687;SDS011;48752;51.056;17.056;2022-08-01T08:02:15;3.50;;;2.70;;
62687;SDS011;48752;51.056;17.056;2022-08-01T08:04:41;5.28;;;2.67;;
62687;SDS011;48752;51.056;17.056;2022-08-01T08:07:12;6.72;;;2.90;;
62687;SDS011;48752;51.056;17.056;2022-08-01T08:09:37;3.63;;;2.40;;
62687;SDS011;48752;51.056;17.056;2022-08-01T08:12:03;3.72;;;2.95;;
62687;SDS011;48752;51.056;17.056;2022-08-01T08:14:29;3.17;;;2.33;;
62687;SDS011;48752;51.056;17.056;2022-08-01T08:16:54;2.80;;;2.40;;
62687;SDS011;48752;51.056;17.056;2022-08-01T08:19:20;3.55;;;2.40;;
62687;SDS011;48752;51.056;17.056;2022-08-01T08:21:45;2.53;;;2.30;;
62687;SDS011;48752;51.056;17.056;2022-08-01T08:24:18;4.35;;;2.40;;
62687;SDS011;48752;51.056;17.056;2022-08-01T08:26:46;3.97;;;2.63;;
62687;SDS011;48752;51.056;17.056;2022-08-01T08:29:12;2.65;;;2.45;;
62687;SDS011;48752;51.056;17.056;2022-08-01T08:31:39;2.92;;;2.63;;
62687;SDS011;48752;51.056;17.056;2022-08-01T08:34:07;2.97;;;2.63;;
62687;SDS011;48752;51.056;17.056;2022-08-01T08:36:33;4.45;;;2.47;;
62687;SDS011;48752;51.056;17.056;2022-08-01T08:39:00;6.90;;;3.15;;
62687;SDS011;48752;51.056;17.056;2022-08-01T08:41:26;3.72;;;2.58;;
62687;SDS011;48752;51.056;17.056;2022-08-01T08:43:56;2.55;;;2.33;;
62687;SDS011;48752;51.056;17.056;2022-08-01T08:46:31;4.85;;;2.83;;
62687;SDS011;48752;51.056;17.056;2022-08-01T08:48:59;4.28;;;2.70;;
62687;SDS011;48752;51.056;17.056;2022-08-01T08:51:27;6.00;;;3.03;;
62687;SDS011;48752;51.056;17.056;2022-08-01T08:53:56;3.67;;;2.47;;
62687;SDS011;48752;51.056;17.056;2022-08-01T08:56:23;3.47;;;2.63;;
62687;SDS011;48752;51.056;17.056;2022-08-01T08:58:49;3.85;;;3.40;;
62687;SDS011;48752;51.056;17.056;2022-08-01T09:01:15;2.97;;;2.70;;
62687;SDS011;48752;51.056;17.056;2022-08-01T09:03:42;4.93;;;3.15;;
62687;SDS011;48752;51.056;17.056;2022-08-01T09:06:08;11.15;;;4.32;;
62687;SDS011;48752;51.056;17.056;2022-08-01T09:08:33;3.00;;;2.45;;
62687;SDS011;48752;51.056;17.056;2022-08-01T09:10:59;2.85;;;2.60;;
62687;SDS011;48752;51.056;17.056;2022-08-01T09:13:24;5.40;;;3.20;;
62687;SDS011;48752;51.056;17.056;2022-08-01T09:15:50;6.55;;;3.10;;
62687;SDS011;48752;51.056;17.056;2022-08-01T09:21:10;3.35;;;3.00;;
62687;SDS011;48752;51.056;17.056;2022-08-01T09:23:44;3.75;;;2.85;;
62687;SDS011;48752;51.056;17.056;2022-08-01T09:26:15;3.42;;;2.63;;
62687;SDS011;48752;51.056;17.056;2022-08-01T09:28:43;4.70;;;2.97;;
62687;SDS011;48752;51.056;17.056;2022-08-01T09:31:10;4.82;;;3.20;;
62687;SDS011;48752;51.056;17.056;2022-08-01T09:36:20;4.93;;;2.80;;
62687;SDS011;48752;51.056;17.056;2022-08-01T09:38:47;3.53;;;2.85;;
62687;SDS011;48752;51.056;17.056;2022-08-01T09:41:12;3.40;;;3.10;;
62687;SDS011;48752;51.056;17.056;2022-08-01T09:43:38;7.70;;;3.60;;
62687;SDS011;48752;51.056;17.056;2022-08-01T09:46:04;5.78;;;3.40;;
62687;SDS011;48752;51.056;17.056;2022-08-01T09:48:34;9.02;;;3.17;;
62687;SDS011;48752;51.056;17.056;2022-08-01T09:51:02;4.97;;;3.00;;
62687;SDS011;48752;51.056;17.056;2022-08-01T09:53:27;3.00;;;2.60;;
62687;SDS011;48752;51.056;17.056;2022-08-01T09:56:11;6.60;;;2.80;;
62687;SDS011;48752;51.056;17.056;2022-08-01T09:58:56;3.78;;;2.67;;
62687;SDS011;48752;51.056;17.056;2022-08-01T10:01:23;4.10;;;2.83;;
62687;SDS011;48752;51.056;17.056;2022-08-01T10:04:22;4.25;;;2.45;;
62687;SDS011;48752;51.056;17.056;2022-08-01T10:06:47;10.23;;;4.57;;
62687;SDS011;48752;51.056;17.056;2022-08-01T10:09:31;4.30;;;2.67;;
62687;SDS011;48752;51.056;17.056;2022-08-01T10:11:59;6.05;;;2.70;;
62687;SDS011;48752;51.056;17.056;2022-08-01T10:14:25;22.45;;;7.30;;
62687;SDS011;48752;51.056;17.056;2022-08-01T10:16:52;6.18;;;2.85;;
62687;SDS011;48752;51.056;17.056;2022-08-01T10:19:18;5.82;;;2.72;;
62687;SDS011;48752;51.056;17.056;2022-08-01T10:21:46;8.30;;;3.08;;
62687;SDS011;48752;51.056;17.056;2022-08-01T10:24:14;3.17;;;2.55;;
62687;SDS011;48752;51.056;17.056;2022-08-01T10:26:40;4.32;;;2.90;;
62687;SDS011;48752;51.056;17.056;2022-08-01T10:29:06;3.42;;;2.40;;
62687;SDS011;48752;51.056;17.056;2022-08-01T10:31:32;2.42;;;2.22;;
62687;SDS011;48752;51.056;17.056;2022-08-01T10:33:58;8.40;;;2.65;;
62687;SDS011;48752;51.056;17.056;2022-08-01T10:36:24;11.02;;;3.17;;
62687;SDS011;48752;51.056;17.056;2022-08-01T10:38:50;6.97;;;2.72;;
62687;SDS011;48752;51.056;17.056;2022-08-01T10:41:17;3.67;;;2.53;;
62687;SDS011;48752;51.056;17.056;2022-08-01T10:43:43;7.95;;;2.40;;
62687;SDS011;48752;51.056;17.056;2022-08-01T10:46:09;3.03;;;2.22;;
62687;SDS011;48752;51.056;17.056;2022-08-01T10:48:39;17.55;;;4.22;;
62687;SDS011;48752;51.056;17.056;2022-08-01T10:51:08;13.73;;;4.03;;
62687;SDS011;48752;51.056;17.056;2022-08-01T10:53:34;3.10;;;2.40;;
62687;SDS011;48752;51.056;17.056;2022-08-01T10:56:00;4.22;;;3.22;;
62687;SDS011;48752;51.056;17.056;2022-08-01T11:03:56;6.70;;;3.80;;
62687;SDS011;48752;51.056;17.056;2022-08-01T11:06:46;8.43;;;3.28;;
62687;SDS011;48752;51.056;17.056;2022-08-01T11:15:22;2.72;;;2.53;;
62687;SDS011;48752;51.056;17.056;2022-08-01T11:17:30;3.28;;;2.97;;
62687;SDS011;48752;51.056;17.056;2022-08-01T11:25:22;8.10;;;3.60;;
62687;SDS011;48752;51.056;17.056;2022-08-01T11:27:48;10.13;;;4.03;;
62687;SDS011;48752;51.056;17.056;2022-08-01T11:32:45;6.40;;;3.10;;
62687;SDS011;48752;51.056;17.056;2022-08-01T11:35:11;3.50;;;3.20;;
62687;SDS011;48752;51.056;17.056;2022-08-01T11:37:37;3.40;;;3.10;;
62687;SDS011;48752;51.056;17.056;2022-08-01T11:40:16;4.15;;;3.28;;
62687;SDS011;48752;51.056;17.056;2022-08-01T11:42:46;7.38;;;2.97;;
62687;SDS011;48752;51.056;17.056;2022-08-01T11:45:14;3.35;;;3.03;;
62687;SDS011;48752;51.056;17.056;2022-08-01T11:47:49;3.88;;;3.28;;
62687;SDS011;48752;51.056;17.056;2022-08-01T11:53:10;4.32;;;2.88;;
62687;SDS011;48752;51.056;17.056;2022-08-01T11:55:35;5.03;;;3.40;;
62687;SDS011;48752;51.056;17.056;2022-08-01T11:58:02;4.03;;;2.70;;
62687;SDS011;48752;51.056;17.056;2022-08-01T12:03:02;5.13;;;3.10;;
62687;SDS011;48752;51.056;17.056;2022-08-01T12:05:30;4.32;;;3.10;;
62687;SDS011;48752;51.056;17.056;2022-08-01T12:07:58;4.75;;;2.72;;
62687;SDS011;48752;51.056;17.056;2022-08-01T12:10:25;3.80;;;3.10;;
62687;SDS011;48752;51.056;17.056;2022-08-01T12:12:54;4.60;;;2.83;;
62687;SDS011;48752;51.056;17.056;2022-08-01T12:15:22;3.28;;;2.97;;
62687;SDS011;48752;51.056;17.056;2022-08-01T12:17:56;5.57;;;2.92;;
62687;SDS011;48752;51.056;17.056;2022-08-01T12:20:22;4.50;;;2.80;;
62687;SDS011;48752;51.056;17.056;2022-08-01T12:22:55;3.17;;;2.45;;
62687;SDS011;48752;51.056;17.056;2022-08-01T12:25:21;2.65;;;2.28;;
62687;SDS011;48752;51.056;17.056;2022-08-01T12:27:47;2.88;;;2.40;;
62687;SDS011;48752;51.056;17.056;2022-08-01T12:30:16;8.50;;;2.85;;
62687;SDS011;48752;51.056;17.056;2022-08-01T12:32:43;3.33;;;2.80;;
62687;SDS011;48752;51.056;17.056;2022-08-01T12:35:14;2.70;;;2.50;;
62687;SDS011;48752;51.056;17.056;2022-08-01T12:37:44;3.50;;;3.25;;
62687;SDS011;48752;51.056;17.056;2022-08-01T12:40:21;4.50;;;2.90;;
62687;SDS011;48752;51.056;17.056;2022-08-01T12:42:49;7.43;;;2.67;;
62687;SDS011;48752;51.056;17.056;2022-08-01T12:45:16;3.35;;;2.53;;
62687;SDS011;48752;51.056;17.056;2022-08-01T12:47:45;5.22;;;2.92;;
62687;SDS011;48752;51.056;17.056;2022-08-01T12:50:12;2.67;;;2.30;;
62687;SDS011;48752;51.056;17.056;2022-08-01T12:52:41;3.75;;;2.28;;
62687;SDS011;48752;51.056;17.056;2022-08-01T12:55:12;2.78;;;2.40;;
62687;SDS011;48752;51.056;17.056;2022-08-01T12:57:39;3.10;;;1.98;;
62687;SDS011;48752;51.056;17.056;2022-08-01T13:02:45;2.53;;;2.33;;
62687;SDS011;48752;51.056;17.056;2022-08-01T13:05:12;2.55;;;2.35;;
62687;SDS011;48752;51.056;17.056;2022-08-01T13:10:14;2.97;;;2.53;;
62687;SDS011;48752;51.056;17.056;2022-08-01T13:12:52;4.22;;;2.80;;
62687;SDS011;48752;51.056;17.056;2022-08-01T13:15:29;4.60;;;2.88;;
62687;SDS011;48752;51.056;17.056;2022-08-01T13:17:56;2.80;;;2.50;;
62687;SDS011;48752;51.056;17.056;2022-08-01T13:20:23;2.97;;;2.50;;
62687;SDS011;48752;51.056;17.056;2022-08-01T13:23:09;6.93;;;4.03;;
62687;SDS011;48752;51.056;17.056;2022-08-01T13:25:45;2.95;;;2.70;;
62687;SDS011;48752;51.056;17.056;2022-08-01T13:28:18;7.55;;;3.05;;
62687;SDS011;48752;51.056;17.056;2022-08-01T13:30:58;8.10;;;2.97;;
62687;SDS011;48752;51.056;17.056;2022-08-01T13:33:25;5.10;;;3.00;;
62687;SDS011;48752;51.056;17.056;2022-08-01T13:35:53;2.72;;;2.47;;
62687;SDS011;48752;51.056;17.056;2022-08-01T13:38:19;3.95;;;3.10;;
62687;SDS011;48752;51.056;17.056;2022-08-01T13:40:45;3.45;;;2.88;;
62687;SDS011;48752;51.056;17.056;2022-08-01T13:43:10;2.92;;;2.55;;
62687;SDS011;48752;51.056;17.056;2022-08-01T13:45:35;2.90;;;2.45;;
62687;SDS011;48752;51.056;17.056;2022-08-01T13:48:01;2.70;;;2.50;;
62687;SDS011;48752;51.056;17.056;2022-08-01T13:50:27;2.97;;;2.78;;
62687;SDS011;48752;51.056;17.056;2022-08-01T13:52:53;3.47;;;3.17;;
62687;SDS011;48752;51.056;17.056;2022-08-01T13:55:18;4.97;;;2.70;;
62687;SDS011;48752;51.056;17.056;2022-08-01T13:57:43;55.25;;;10.63;;
62687;SDS011;48752;51.056;17.056;2022-08-01T14:00:09;3.00;;;2.70;;
62687;SDS011;48752;51.056;17.056;2022-08-01T14:02:35;3.05;;;2.22;;
62687;SDS011;48752;51.056;17.056;2022-08-01T14:05:00;2.38;;;1.92;;
62687;SDS011;48752;51.056;17.056;2022-08-01T14:07:26;8.38;;;2.65;;
62687;SDS011;48752;51.056;17.056;2022-08-01T14:09:52;3.85;;;1.70;;
62687;SDS011;48752;51.056;17.056;2022-08-01T14:12:18;2.95;;;1.70;;
62687;SDS011;48752;51.056;17.056;2022-08-01T14:14:43;2.03;;;1.60;;
62687;SDS011;48752;51.056;17.056;2022-08-01T14:17:08;2.40;;;1.70;;
62687;SDS011;48752;51.056;17.056;2022-08-01T14:19:34;5.70;;;1.70;;
62687;SDS011;48752;51.056;17.056;2022-08-01T14:21:59;2.00;;;1.50;;
62687;SDS011;48752;51.056;17.056;2022-08-01T14:24:24;5.88;;;1.67;;
62687;SDS011;48752;51.056;17.056;2022-08-01T14:26:51;2.80;;;2.00;;
62687;SDS011;48752;51.056;17.056;2022-08-01T14:29:16;4.45;;;1.83;;
62687;SDS011;48752;51.056;17.056;2022-08-01T14:31:42;2.00;;;1.90;;
62687;SDS011;48752;51.056;17.056;2022-08-01T14:34:07;3.60;;;2.22;;
62687;SDS011;48752;51.056;17.056;2022-08-01T14:36:33;3.67;;;2.20;;
62687;SDS011;48752;51.056;17.056;2022-08-01T14:38:59;3.42;;;2.05;;
62687;SDS011;48752;51.056;17.056;2022-08-01T14:41:24;4.18;;;2.50;;
62687;SDS011;48752;51.056;17.056;2022-08-01T14:43:49;23.17;;;3.65;;
62687;SDS011;48752;51.056;17.056;2022-08-01T14:46:15;6.30;;;2.40;;
62687;SDS011;48752;51.056;17.056;2022-08-01T14:48:40;7.85;;;2.58;;
62687;SDS011;48752;51.056;17.056;2022-08-01T14:51:06;5.03;;;2.97;;
62687;SDS011;48752;51.056;17.056;2022-08-01T14:53:32;6.75;;;2.85;;
62687;SDS011;48752;51.056;17.056;2022-08-01T14:55:58;4.93;;;2.70;;
62687;SDS011;48752;51.056;17.056;2022-08-01T14:58:23;2.75;;;2.35;;
62687;SDS011;48752;51.056;17.056;2022-08-01T15:00:49;3.47;;;2.50;;
62687;SDS011;48752;51.056;17.056;2022-08-01T15:03:14;6.32;;;2.85;;
62687;SDS011;48752;51.056;17.056;2022-08-01T15:05:39;3.70;;;2.20;;
62687;SDS011;48752;51.056;17.056;2022-08-01T15:08:08;4.78;;;2.67;;
62687;SDS011;48752;51.056;17.056;2022-08-01T15:10:33;4.13;;;2.17;;
62687;SDS011;48752;51.056;17.056;2022-08-01T15:12:59;3.30;;;2.10;;
62687;SDS011;48752;51.056;17.056;2022-08-01T15:15:26;8.52;;;2.58;;
62687;SDS011;48752;51.056;17.056;2022-08-01T15:17:52;2.63;;;2.05;;
62687;SDS011;48752;51.056;17.056;2022-08-01T15:20:18;4.68;;;2.20;;
62687;SDS011;48752;51.056;17.056;2022-08-01T15:22:43;3.83;;;2.28;;
62687;SDS011;48752;51.056;17.056;2022-08-01T15:25:09;3.22;;;1.73;;
62687;SDS011;48752;51.056;17.056;2022-08-01T15:27:34;2.10;;;1.90;;